createdAt,value
2022-12-29T00:00:24.620Z,99056.88
2022-12-29T00:02:53.794Z,99055.19
2022-12-29T00:05:21.288Z,99058.75
2022-12-29T00:07:48.771Z,99048.78
2022-12-29T00:10:16.225Z,99049.34
2022-12-29T00:12:43.971Z,99056.88
2022-12-29T00:15:12.113Z,99047.09
2022-12-29T00:17:39.688Z,99045.06
2022-12-29T00:20:09.763Z,99045.06
2022-12-29T00:22:37.479Z,99051.31
2022-12-29T00:25:05.423Z,99051.47
2022-12-29T00:27:33.740Z,99041.06
2022-12-29T00:30:01.210Z,99053.53
2022-12-29T00:32:28.786Z,99052.50
2022-12-29T00:34:56.255Z,99045.91
2022-12-29T00:37:25.282Z,99047.78
2022-12-29T00:39:52.725Z,99040.03
2022-12-29T00:42:20.192Z,99040.88
2022-12-29T00:44:47.641Z,99040.88
2022-12-29T00:47:15.210Z,99049.53
2022-12-29T00:49:42.955Z,99051.47
2022-12-29T00:52:12.636Z,99047.41
2022-12-29T00:54:42.585Z,99046.84
2022-12-29T00:57:11.173Z,99043.50
2022-12-29T00:59:39.277Z,99047.47
2022-12-29T01:02:07.715Z,99049.53
2022-12-29T01:04:35.627Z,99036.59
2022-12-29T01:07:03.136Z,99039.09
2022-12-29T01:09:30.625Z,99049.34
2022-12-29T01:11:59.832Z,99051.38
2022-12-29T01:14:27.827Z,99046.47
2022-12-29T01:16:56.493Z,99043.28
2022-12-29T01:19:24.419Z,99042.09
2022-12-29T01:21:52.576Z,99050.44
2022-12-29T01:24:21.865Z,99051.94
2022-12-29T01:26:49.614Z,99047.88
2022-12-29T01:29:19.359Z,99045.81
2022-12-29T01:31:47.488Z,99044.97
2022-12-29T01:34:15.164Z,99041.63
2022-12-29T01:36:43.675Z,99051.03
2022-12-29T01:39:12.895Z,99052.59
2022-12-29T01:41:42.567Z,99044.97
2022-12-29T01:44:55.334Z,99043.50
2022-12-29T01:47:31.775Z,99036.59
2022-12-29T01:50:04.036Z,99042.81
2022-12-29T01:52:33.710Z,99045.81
2022-12-29T01:55:04.546Z,99041.78
2022-12-29T01:57:35.629Z,99043.50
2022-12-29T02:00:06.049Z,99044.50
2022-12-29T02:02:43.370Z,99039.09
2022-12-29T02:05:15.316Z,99041.34
2022-12-29T02:07:46.963Z,99040.81
2022-12-29T02:10:15.373Z,99040.81
2022-12-29T02:12:42.953Z,99040.97
2022-12-29T02:15:10.978Z,99045.34
2022-12-29T02:18:02.995Z,99042.47
2022-12-29T02:20:56.490Z,99043.50
2022-12-29T02:24:01.551Z,99040.97
2022-12-29T02:26:45.764Z,99036.59
2022-12-29T02:29:34.323Z,99030.34
2022-12-29T02:32:09.571Z,99026.53
2022-12-29T02:34:48.875Z,99029.06
2022-12-29T02:37:23.696Z,99032.03
2022-12-29T02:39:58.523Z,99031.75
2022-12-29T02:42:34.371Z,99040.03
2022-12-29T02:45:06.830Z,99034.47
2022-12-29T02:47:42.201Z,99034.47
2022-12-29T02:50:16.610Z,99043.75
2022-12-29T02:52:52.826Z,99028.13
2022-12-29T02:55:20.578Z,99037.19
2022-12-29T02:57:49.684Z,99037.63
2022-12-29T03:00:19.043Z,99042.66
2022-12-29T03:03:16.754Z,99048.03
2022-12-29T03:06:05.127Z,99047.91
2022-12-29T03:08:40.766Z,99043.34
2022-12-29T03:11:13.739Z,99044.75
2022-12-29T03:13:48.161Z,99039.63
2022-12-29T03:16:24.739Z,99041.38
2022-12-29T03:19:00.850Z,99044.53
2022-12-29T03:21:35.669Z,99041.19
2022-12-29T03:24:07.202Z,99039.34
2022-12-29T03:26:36.235Z,99037.69
2022-12-29T03:29:05.331Z,99033.09
2022-12-29T03:31:33.687Z,99027.91
2022-12-29T03:34:04.241Z,99033.41
2022-12-29T03:36:49.390Z,99024.22
2022-12-29T03:39:21.721Z,99029.16
2022-12-29T03:41:56.469Z,99023.56
2022-12-29T03:44:33.446Z,99023.09
2022-12-29T03:47:01.795Z,99018.34
2022-12-29T03:49:30.960Z,99017.34
2022-12-29T03:51:58.607Z,99020.69
2022-12-29T03:54:27.046Z,99023.94
2022-12-29T03:56:54.684Z,99027.09
2022-12-29T03:59:33.640Z,99027.09
2022-12-29T04:02:02.605Z,99026.84
2022-12-29T04:04:31.735Z,99032.22
2022-12-29T04:06:59.322Z,99032.50
2022-12-29T04:09:28.122Z,99027.09
2022-12-29T04:11:55.831Z,99032.16
2022-12-29T04:14:23.478Z,99031.84
2022-12-29T04:16:51.021Z,99033.13
2022-12-29T04:19:18.649Z,99031.84
2022-12-29T04:21:48.715Z,99039.78
2022-12-29T04:24:16.216Z,99038.75
2022-12-29T04:26:46.864Z,99049.25
2022-12-29T04:29:37.187Z,99050.09
2022-12-29T04:32:23.280Z,99049.88
2022-12-29T04:34:54.187Z,99049.41
2022-12-29T04:37:23.181Z,99054.47
2022-12-29T04:39:50.724Z,99048.03
2022-12-29T04:42:18.674Z,99045.72
2022-12-29T04:44:46.767Z,99048.41
2022-12-29T04:47:34.486Z,99047.72
2022-12-29T04:50:25.126Z,99057.63
2022-12-29T04:53:08.042Z,99054.00
2022-12-29T04:55:37.048Z,99054.56
2022-12-29T04:58:04.597Z,99055.59
2022-12-29T05:00:34.206Z,99054.47
2022-12-29T05:03:02.357Z,99057.84
2022-12-29T05:05:30.947Z,99057.94
2022-12-29T05:07:59.498Z,99066.41
2022-12-29T05:10:29.764Z,99062.50
2022-12-29T05:13:00.619Z,99061.41
2022-12-29T05:15:28.617Z,99068.00
2022-12-29T05:17:56.232Z,99063.25
2022-12-29T05:20:23.779Z,99066.31
2022-12-29T05:22:51.521Z,99072.84
2022-12-29T05:25:19.741Z,99062.72
2022-12-29T05:28:20.762Z,99063.59
2022-12-29T05:30:58.321Z,99067.56
2022-12-29T05:33:26.055Z,99061.59
2022-12-29T05:35:53.580Z,99067.44
2022-12-29T05:38:22.416Z,99072.63
2022-12-29T05:40:50.481Z,99069.94
2022-12-29T05:43:41.911Z,99075.31
2022-12-29T05:46:28.412Z,99069.72
2022-12-29T05:49:14.184Z,99076.53
2022-12-29T05:51:57.790Z,99064.41
2022-12-29T05:54:25.394Z,99074.75
2022-12-29T05:56:53.325Z,99071.94
2022-12-29T05:59:23.241Z,99068.34
2022-12-29T06:01:51.713Z,99064.78
2022-12-29T06:04:20.600Z,99067.03
2022-12-29T06:06:48.889Z,99061.06
2022-12-29T06:09:35.139Z,99069.16
2022-12-29T06:12:04.729Z,99064.31
2022-12-29T06:14:34.611Z,99069.81
2022-12-29T06:17:04.408Z,99067.88
2022-12-29T06:19:33.141Z,99066.94
2022-12-29T06:22:00.787Z,99067.78
2022-12-29T06:24:29.400Z,99057.16
2022-12-29T06:26:56.921Z,99050.75
2022-12-29T06:29:24.400Z,99057.34
2022-12-29T06:31:53.360Z,99054.66
2022-12-29T06:34:21.318Z,99049.88
2022-12-29T06:36:48.766Z,99054.94
2022-12-29T06:39:16.213Z,99050.56
2022-12-29T06:41:53.883Z,99051.38
2022-12-29T06:44:41.214Z,99059.50
2022-12-29T06:47:12.464Z,99056.78
2022-12-29T06:49:40.012Z,99056.63
2022-12-29T06:52:12.420Z,99055.59
2022-12-29T06:54:40.883Z,99052.88
2022-12-29T06:57:08.631Z,99056.31
2022-12-29T06:59:36.084Z,99056.06
2022-12-29T07:02:03.890Z,99053.25
2022-12-29T07:04:32.916Z,99051.22
2022-12-29T07:07:01.075Z,99060.34
2022-12-29T07:09:29.388Z,99056.13
2022-12-29T07:11:56.930Z,99057.00
2022-12-29T07:14:24.534Z,99050.91
2022-12-29T07:16:52.823Z,99058.00
2022-12-29T07:19:20.867Z,99052.78
2022-12-29T07:21:50.018Z,99058.66
2022-12-29T07:24:17.740Z,99053.25
2022-12-29T07:26:45.675Z,99056.44
2022-12-29T07:29:13.256Z,99056.44
2022-12-29T07:31:40.847Z,99055.59
2022-12-29T07:34:09.683Z,99057.25
2022-12-29T07:36:37.199Z,99055.19
2022-12-29T07:39:06.333Z,99064.78
2022-12-29T07:41:34.016Z,99064.41
2022-12-29T07:44:03.302Z,99065.66
2022-12-29T07:46:56.612Z,99054.94
2022-12-29T07:49:25.043Z,99056.69
2022-12-29T07:51:52.503Z,99062.41
2022-12-29T07:54:21.538Z,99055.50
2022-12-29T07:56:49.175Z,99066.66
2022-12-29T07:59:16.715Z,99054.38
2022-12-29T08:01:44.320Z,99057.25
2022-12-29T08:04:11.994Z,99054.00
2022-12-29T08:06:40.582Z,99055.03
2022-12-29T08:09:15.136Z,99057.91
2022-12-29T08:11:47.142Z,99057.25
2022-12-29T08:14:14.787Z,99057.25
2022-12-29T08:16:42.742Z,99052.25
2022-12-29T08:19:11.778Z,99061.34
2022-12-29T08:21:40.332Z,99055.09
2022-12-29T08:24:09.197Z,99054.63
2022-12-29T08:26:36.917Z,99052.41
2022-12-29T08:29:05.885Z,99050.91
2022-12-29T08:31:33.495Z,99048.75
2022-12-29T08:34:01.298Z,99056.06
2022-12-29T08:36:28.750Z,99051.78
2022-12-29T08:38:56.273Z,99052.16
2022-12-29T08:41:24.030Z,99056.63
2022-12-29T08:43:51.931Z,99058.44
2022-12-29T08:46:21.034Z,99054.38
2022-12-29T08:48:48.480Z,99063.22
2022-12-29T08:51:18.216Z,99061.38
2022-12-29T08:53:49.305Z,99062.19
2022-12-29T08:56:16.839Z,99060.34
2022-12-29T08:58:50.002Z,99065.09
2022-12-29T09:01:21.210Z,99059.56
2022-12-29T09:04:14.931Z,99063.03
2022-12-29T09:06:40.528Z,99067.41
2022-12-29T09:09:08.501Z,99066.56
2022-12-29T09:11:36.015Z,99064.53
2022-12-29T09:14:03.660Z,99067.56
2022-12-29T09:16:32.967Z,99066.75
2022-12-29T09:19:00.669Z,99067.22
2022-12-29T09:21:28.472Z,99063.84
2022-12-29T09:23:56.713Z,99055.97
2022-12-29T09:26:24.292Z,99065.19
2022-12-29T09:28:51.789Z,99063.13
2022-12-29T09:31:19.420Z,99060.69
2022-12-29T09:33:48.557Z,99053.63
2022-12-29T09:36:16.192Z,99062.75
2022-12-29T09:38:43.657Z,99057.91
2022-12-29T09:41:19.851Z,99058.53
2022-12-29T09:44:00.480Z,99065.72
2022-12-29T09:46:30.763Z,99063.50
2022-12-29T09:49:09.671Z,99054.94
2022-12-29T09:51:39.708Z,99058.28
2022-12-29T09:54:24.503Z,99061.53
2022-12-29T09:56:54.295Z,99052.59
2022-12-29T09:59:25.977Z,99048.59
2022-12-29T10:02:01.306Z,99052.59
2022-12-29T10:04:30.629Z,99043.84
2022-12-29T10:10:06.384Z,99039.84
2022-12-29T10:12:49.281Z,99036.03
2022-12-29T10:15:42.199Z,99035.91
2022-12-29T10:18:27.708Z,99038.78
2022-12-29T10:21:02.883Z,99038.09
2022-12-29T10:23:35.057Z,99037.25
2022-12-29T10:26:05.040Z,99032.50
2022-12-29T10:28:39.363Z,99037.97
2022-12-29T10:31:14.733Z,99035.28
2022-12-29T10:33:43.826Z,99038.38
2022-12-29T10:36:18.138Z,99047.19
2022-12-29T10:38:54.258Z,99045.81
2022-12-29T10:41:27.144Z,99037.34
2022-12-29T10:43:58.310Z,99050.84
2022-12-29T10:46:30.025Z,99041.63
2022-12-29T10:48:57.638Z,99045.81
2022-12-29T10:51:30.419Z,99051.59
2022-12-29T10:54:05.231Z,99050.19
2022-12-29T10:56:36.816Z,99045.25
2022-12-29T10:59:14.331Z,99050.66
2022-12-29T11:01:56.805Z,99048.78
2022-12-29T11:04:37.090Z,99052.59
2022-12-29T11:07:13.243Z,99049.88
2022-12-29T11:09:45.703Z,99059.13
2022-12-29T11:12:22.563Z,99050.00
2022-12-29T11:15:03.595Z,99051.47
2022-12-29T11:17:31.292Z,99036.78
2022-12-29T11:19:59.046Z,99041.69
2022-12-29T11:22:29.910Z,99045.06
2022-12-29T11:25:12.062Z,99050.47
2022-12-29T11:27:39.745Z,99057.56
2022-12-29T11:30:24.843Z,99051.13
2022-12-29T11:32:53.689Z,99053.19
2022-12-29T11:35:34.088Z,99050.28
2022-12-29T11:38:05.098Z,99048.78
2022-12-29T11:40:39.042Z,99050.00
2022-12-29T11:43:07.521Z,99052.72
2022-12-29T11:45:37.068Z,99042.72
2022-12-29T11:48:10.370Z,99048.13
2022-12-29T11:50:41.588Z,99055.19
2022-12-29T11:53:20.616Z,99046.53
2022-12-29T11:55:56.420Z,99053.19
2022-12-29T11:58:30.694Z,99058.38
2022-12-29T12:01:02.054Z,99059.22
2022-12-29T12:03:32.142Z,99060.03
2022-12-29T12:06:03.152Z,99064.16
2022-12-29T12:08:38.980Z,99057.09
2022-12-29T12:11:12.685Z,99062.28
2022-12-29T12:13:46.668Z,99061.72
2022-12-29T12:16:17.988Z,99069.00
2022-12-29T12:18:53.248Z,99059.22
2022-12-29T12:21:29.541Z,99064.63
2022-12-29T12:24:22.112Z,99069.81
2022-12-29T12:27:01.091Z,99061.91
2022-12-29T12:29:37.031Z,99061.06
2022-12-29T12:32:15.362Z,99060.91
2022-12-29T12:34:45.483Z,99065.44
2022-12-29T12:37:42.530Z,99067.97
2022-12-29T12:40:35.704Z,99068.59
2022-12-29T12:43:23.039Z,99055.50
2022-12-29T12:46:03.390Z,99052.78
2022-12-29T12:48:52.172Z,99064.41
2022-12-29T12:51:32.056Z,99052.50
2022-12-29T12:54:12.669Z,99054.63
2022-12-29T12:57:01.292Z,99053.34
2022-12-29T12:59:41.488Z,99055.75
2022-12-29T13:02:25.663Z,99052.31
2022-12-29T13:05:26.628Z,99051.69
2022-12-29T13:08:13.779Z,99054.09
2022-12-29T13:10:51.380Z,99052.25
2022-12-29T13:13:42.245Z,99051.22
2022-12-29T13:16:22.118Z,99053.75
2022-12-29T13:19:10.060Z,99058.38
2022-12-29T13:22:00.204Z,99054.38
2022-12-29T13:24:40.772Z,99057.56
2022-12-29T13:27:17.623Z,99064.78
2022-12-29T13:29:51.945Z,99062.09
2022-12-29T13:32:30.309Z,99054.16
2022-12-29T13:35:13.019Z,99058.38
2022-12-29T13:37:49.462Z,99055.19
2022-12-29T13:40:20.501Z,99055.88
2022-12-29T13:42:49.545Z,99061.91
2022-12-29T13:45:22.314Z,99056.06
2022-12-29T13:47:57.556Z,99057.56
2022-12-29T13:50:28.370Z,99064.97
2022-12-29T13:53:04.266Z,99062.28
2022-12-29T13:55:37.641Z,99060.59
2022-12-29T13:58:16.258Z,99064.31
2022-12-29T14:00:55.978Z,99064.97
2022-12-29T14:03:41.359Z,99062.47
2022-12-29T14:06:18.332Z,99069.56
2022-12-29T14:08:47.217Z,99073.28
2022-12-29T14:11:46.068Z,99070.75
2022-12-29T14:14:21.170Z,99066.09
2022-12-29T14:16:50.999Z,99069.09
2022-12-29T14:19:24.078Z,99068.69
2022-12-29T14:21:56.206Z,99081.38
2022-12-29T14:24:43.173Z,99082.03
2022-12-29T14:27:45.453Z,99078.75
2022-12-29T14:30:58.672Z,99081.47
2022-12-29T14:33:30.534Z,99082.03
2022-12-29T14:36:19.236Z,99087.41
2022-12-29T14:38:48.253Z,99088.91
2022-12-29T14:41:28.160Z,99090.59
2022-12-29T14:44:00.755Z,99084.72
2022-12-29T14:46:47.916Z,99083.69
2022-12-29T14:49:20.787Z,99085.56
2022-12-29T14:51:51.817Z,99081.00
2022-12-29T14:54:48.559Z,99088.06
2022-12-29T14:57:27.140Z,99090.13
2022-12-29T14:59:58.108Z,99088.44
2022-12-29T15:02:33.495Z,99081.09
2022-12-29T15:05:04.561Z,99085.84
2022-12-29T15:07:33.891Z,99081.09
2022-12-29T15:10:13.889Z,99079.03
2022-12-29T15:12:47.155Z,99077.38
2022-12-29T15:15:23.452Z,99083.78
2022-12-29T15:17:51.663Z,99079.59
2022-12-29T15:20:26.785Z,99089.00
2022-12-29T15:22:57.513Z,99085.66
2022-12-29T15:25:26.412Z,99086.94
2022-12-29T15:28:04.533Z,99094.38
2022-12-29T15:30:32.753Z,99090.59
2022-12-29T15:33:02.729Z,99093.38
2022-12-29T15:35:34.288Z,99089.25
2022-12-29T15:38:14.632Z,99100.19
2022-12-29T15:40:45.959Z,99094.78
2022-12-29T15:43:46.715Z,99090.19
2022-12-29T15:46:15.893Z,99089.19
2022-12-29T15:48:45.851Z,99090.03
2022-12-29T15:51:22.475Z,99093.38
2022-12-29T15:53:52.916Z,99087.31
2022-12-29T15:56:20.763Z,99081.94
2022-12-29T15:58:51.140Z,99079.03
2022-12-29T16:01:25.796Z,99078.84
2022-12-29T16:03:54.986Z,99080.53
2022-12-29T16:06:46.003Z,99078.22
2022-12-29T16:09:18.132Z,99081.38
2022-12-29T16:11:49.666Z,99081.56
2022-12-29T16:14:21.048Z,99083.22
2022-12-29T16:16:51.458Z,99079.50
2022-12-29T16:19:26.991Z,99080.72
2022-12-29T16:21:56.581Z,99086.31
2022-12-29T16:24:27.955Z,99078.22
2022-12-29T16:27:00.943Z,99090.50
2022-12-29T16:29:30.605Z,99086.56
2022-12-29T16:31:59.662Z,99084.25
2022-12-29T16:34:31.867Z,99078.03
2022-12-29T16:37:03.292Z,99077.81
2022-12-29T16:39:41.091Z,99090.28
2022-12-29T16:42:37.370Z,99080.44
2022-12-29T16:45:44.035Z,99085.66
2022-12-29T16:48:19.943Z,99077.34
2022-12-29T16:50:48.827Z,99075.13
2022-12-29T16:53:25.007Z,99079.69
2022-12-29T16:55:54.348Z,99069.94
2022-12-29T16:58:25.262Z,99074.09
2022-12-29T17:00:56.442Z,99075.13
2022-12-29T17:03:30.003Z,99071.22
2022-12-29T17:05:57.951Z,99068.69
2022-12-29T17:08:27.002Z,99076.78
2022-12-29T17:10:57.689Z,99070.38
2022-12-29T17:13:25.356Z,99069.72
2022-12-29T17:15:52.961Z,99077.00
2022-12-29T17:18:20.795Z,99071.59
2022-12-29T17:20:49.801Z,99065.34
2022-12-29T17:23:25.952Z,99060.97
2022-12-29T17:25:55.894Z,99071.59
2022-12-29T17:28:27.535Z,99074.09
2022-12-29T17:31:00.051Z,99072.44
2022-12-29T17:33:30.400Z,99068.69
2022-12-29T17:35:57.875Z,99064.31
2022-12-29T17:38:29.382Z,99072.44
2022-12-29T17:40:59.655Z,99076.78
2022-12-29T17:43:34.601Z,99065.34
2022-12-29T17:46:07.408Z,99071.13
2022-12-29T17:48:36.148Z,99067.22
2022-12-29T17:51:03.643Z,99063.69
2022-12-29T17:53:31.941Z,99071.41
2022-12-29T17:56:01.064Z,99066.22
2022-12-29T17:58:29.967Z,99078.69
2022-12-29T18:00:59.854Z,99073.63
2022-12-29T18:03:30.594Z,99071.97
2022-12-29T18:05:59.007Z,99078.69
2022-12-29T18:08:27.400Z,99070.94
2022-12-29T18:10:55.732Z,99067.22
2022-12-29T18:13:33.551Z,99070.75
2022-12-29T18:16:08.357Z,99072.63
2022-12-29T18:18:35.973Z,99073.06
2022-12-29T18:21:03.582Z,99075.78
2022-12-29T18:23:33.404Z,99066.84
2022-12-29T18:26:03.158Z,99067.03
2022-12-29T18:28:32.847Z,99067.03
2022-12-29T18:31:01.893Z,99067.88
2022-12-29T18:33:30.141Z,99065.81
2022-12-29T18:35:59.971Z,99065.34
2022-12-29T18:38:28.244Z,99067.03
2022-12-29T18:40:56.006Z,99061.84
2022-12-29T18:43:24.284Z,99064.97
2022-12-29T18:45:53.334Z,99069.56
2022-12-29T18:48:21.687Z,99077.00
2022-12-29T18:50:50.468Z,99066.22
2022-12-29T18:53:19.768Z,99069.38
2022-12-29T18:55:47.628Z,99070.56
2022-12-29T18:58:15.366Z,99070.75
2022-12-29T19:00:43.248Z,99067.03
2022-12-29T19:03:13.473Z,99063.31
2022-12-29T19:05:43.506Z,99060.59
2022-12-29T19:08:11.947Z,99066.22
2022-12-29T19:10:40.338Z,99058.28
2022-12-29T19:13:09.932Z,99068.69
2022-12-29T19:15:38.058Z,99065.19
2022-12-29T19:18:42.379Z,99063.69
2022-12-29T19:20:56.453Z,99059.78
2022-12-29T19:23:26.186Z,99066.00
2022-12-29T19:25:55.039Z,99062.66
2022-12-29T19:28:25.684Z,99067.88
2022-12-29T19:30:57.242Z,99067.03
2022-12-29T19:33:25.137Z,99072.44
2022-12-29T19:35:53.070Z,99076.16
2022-12-29T19:38:21.983Z,99070.56
2022-12-29T19:40:50.627Z,99080.34
2022-12-29T19:43:19.199Z,99066.38
2022-12-29T19:45:46.896Z,99080.72
2022-12-29T19:48:16.802Z,99077.34
2022-12-29T19:50:44.713Z,99076.16
2022-12-29T19:53:13.171Z,99081.72
2022-12-29T19:55:44.091Z,99084.06
2022-12-29T19:58:12.390Z,99081.56
2022-12-29T20:00:40.555Z,99079.88
2022-12-29T20:03:08.504Z,99086.94
2022-12-29T20:05:36.271Z,99093.19
2022-12-29T20:08:03.972Z,99090.28
2022-12-29T20:10:31.574Z,99090.03
2022-12-29T20:13:01.139Z,99083.59
2022-12-29T20:15:28.378Z,99086.31
2022-12-29T20:18:13.812Z,99080.72
2022-12-29T20:20:42.463Z,99079.22
2022-12-29T20:23:10.055Z,99072.81
2022-12-29T20:25:46.426Z,99074.84
2022-12-29T20:28:16.262Z,99084.44
2022-12-29T20:30:43.941Z,99081.47
2022-12-29T20:33:11.833Z,99083.97
2022-12-29T20:35:39.277Z,99080.44
2022-12-29T20:38:06.796Z,99089.00
2022-12-29T20:40:38.094Z,99079.03
2022-12-29T20:43:10.077Z,99080.25
2022-12-29T20:45:39.229Z,99081.47
2022-12-29T20:48:06.954Z,99078.22
2022-12-29T20:50:34.427Z,99081.00
2022-12-29T20:53:01.975Z,99091.06
2022-12-29T20:55:29.527Z,99078.94
2022-12-29T20:58:23.134Z,99075.88
2022-12-29T21:00:46.268Z,99074.00
2022-12-29T21:03:13.793Z,99070.50
2022-12-29T21:05:41.480Z,99070.19
2022-12-29T21:08:08.919Z,99076.06
2022-12-29T21:10:36.364Z,99066.47
2022-12-29T21:13:04.338Z,99072.50
2022-12-29T21:15:32.357Z,99077.91
2022-12-29T21:18:01.351Z,99076.72
2022-12-29T21:20:28.915Z,99073.28
2022-12-29T21:22:56.867Z,99074.31
2022-12-29T21:25:24.499Z,99075.59
2022-12-29T21:27:52.170Z,99075.22
2022-12-29T21:30:19.812Z,99074.56
2022-12-29T21:32:47.329Z,99074.84
2022-12-29T21:35:17.154Z,99072.34
2022-12-29T21:37:44.739Z,99069.53
2022-12-29T21:40:12.978Z,99075.22
2022-12-29T21:42:40.583Z,99079.41
2022-12-29T21:45:14.017Z,99077.72
2022-12-29T21:47:45.327Z,99082.97
2022-12-29T21:50:12.745Z,99078.59
2022-12-29T21:52:42.096Z,99082.09
2022-12-29T21:55:10.056Z,99083.97
2022-12-29T21:57:37.632Z,99089.38
2022-12-29T22:00:08.854Z,99081.94
2022-12-29T22:02:36.462Z,99087.69
2022-12-29T22:05:05.652Z,99086.69
2022-12-29T22:07:33.105Z,99085.66
2022-12-29T22:10:02.000Z,99091.06
2022-12-29T22:12:30.744Z,99090.19
2022-12-29T22:14:58.277Z,99085.84
2022-12-29T22:17:28.908Z,99091.88
2022-12-29T22:19:58.048Z,99085.66
2022-12-29T22:22:25.971Z,99090.03
2022-12-29T22:24:53.392Z,99090.03
2022-12-29T22:27:22.254Z,99084.81
2022-12-29T22:29:49.697Z,99089.00
2022-12-29T22:32:17.170Z,99088.16
2022-12-29T22:34:44.631Z,99093.75
2022-12-29T22:37:12.098Z,99091.69
2022-12-29T22:39:39.542Z,99090.19
2022-12-29T22:42:07.287Z,99089.81
2022-12-29T22:44:36.360Z,99091.06
2022-12-29T22:47:03.807Z,99090.03
2022-12-29T22:49:31.351Z,99091.88
2022-12-29T22:51:58.832Z,99083.97
2022-12-29T22:54:26.373Z,99085.84
2022-12-29T22:56:54.349Z,99086.47
2022-12-29T22:59:21.814Z,99083.97
2022-12-29T23:01:50.955Z,99080.06
2022-12-29T23:07:06.341Z,99088.16
2022-12-29T23:09:33.811Z,99083.97
2022-12-29T23:12:01.793Z,99085.66
2022-12-29T23:14:29.221Z,99076.06
2022-12-29T23:16:58.732Z,99080.06
2022-12-29T23:19:26.430Z,99074.00
2022-12-29T23:21:54.359Z,99067.78
2022-12-29T23:24:21.906Z,99063.03
2022-12-29T23:26:49.489Z,99068.44
2022-12-29T23:29:18.572Z,99062.41
2022-12-29T23:31:46.715Z,99066.56
2022-12-29T23:34:16.629Z,99065.72
2022-12-29T23:36:44.133Z,99061.16
2022-12-29T23:39:18.927Z,99063.03
2022-12-29T23:41:46.451Z,99063.03
2022-12-29T23:44:13.911Z,99062.00
2022-12-29T23:46:42.077Z,99061.16
2022-12-29T23:49:10.428Z,99061.84
2022-12-29T23:51:39.341Z,99056.63
2022-12-29T23:54:07.006Z,99066.56
2022-12-29T23:56:34.454Z,99062.66
2022-12-29T23:59:03.885Z,99060.34
